Aviation Digital Data Service (ADDS)

Output produced by METARs form (1316 UTC 17 September 2019)
found at http://www.aviationweather.gov/metar/data/
 
LOWG 171250Z 18006KT 140V220 9999 FEW050 SCT100 25/15 Q1014 NOSIG
LOWG 171220Z 17006KT 130V210 9999 FEW050 SCT100 25/15 Q1014 NOSIG
LOWG 171150Z 16007KT 090V200 9999 FEW045 BKN100 24/15 Q1015 NOSIG
LOWG 171120Z 17003KT 130V240 9999 FEW040 FEW050TCU BKN100 24/14 Q1015 NOSIG
LOWG 171050Z 18004KT 080V240 9999 FEW040 FEW050TCU BKN100 24/15 Q1015 TEMPO SHRA
LOWG 171020Z 17007KT 140V210 9999 FEW040 FEW050TCU BKN110 24/16 Q1015 TEMPO SHRA
LOWG 170950Z 14006KT 120V180 9999 FEW040 BKN140 23/15 Q1016 TEMPO FM1030 SHRA
LOWG 170920Z 15006KT 110V180 9999 FEW040 BKN140 23/15 Q1016 NOSIG
LOWG 170850Z 15003KT 110V210 9999 FEW040 BKN140 22/16 Q1016 NOSIG
LOWG 170820Z VRB01KT 9999 FEW050 BKN140 21/16 Q1016 NOSIG
LOWG 170750Z VRB02KT 9999 FEW040 BKN140 21/17 Q1016 NOSIG
LOWG 170720Z 35003KT 9999 FEW050 BKN160 19/16 Q1016 NOSIG
TAF LOWG 171115Z 1712/1812 35006KT 9999 FEW050 BKN120 TX25/1713Z TN12/1805Z 
     TEMPO 1712/1718 19008KT SHRA FEW045TCU BKN050 
     PROB30 
     TEMPO 1712/1716 VRB12KT TSRA SCT045CB BKN050 
     BECMG 1722/1724 36004KT FEW060 
     TEMPO 1800/1808 35012KT